sensor_id;sensor_type;location;lat;lon;timestamp;P1;durP1;ratioP1;P2;durP2;ratioP2
63112;SDS011;49206;48.020;21.378;2023-02-12T00:00:58;68.85;;;32.70;;
63112;SDS011;49206;48.020;21.378;2023-02-12T00:02:00;73.13;;;35.92;;
63112;SDS011;49206;48.020;21.378;2023-02-12T00:03:03;73.53;;;35.13;;
63112;SDS011;49206;48.020;21.378;2023-02-12T00:04:06;73.07;;;33.65;;
63112;SDS011;49206;48.020;21.378;2023-02-12T00:05:08;74.15;;;34.88;;
63112;SDS011;49206;48.020;21.378;2023-02-12T00:06:10;69.97;;;34.05;;
63112;SDS011;49206;48.020;21.378;2023-02-12T00:07:16;66.30;;;33.95;;
63112;SDS011;49206;48.020;21.378;2023-02-12T00:08:19;75.30;;;34.28;;
63112;SDS011;49206;48.020;21.378;2023-02-12T00:09:22;71.65;;;33.15;;
63112;SDS011;49206;48.020;21.378;2023-02-12T00:10:24;68.75;;;34.00;;
63112;SDS011;49206;48.020;21.378;2023-02-12T00:11:27;69.03;;;33.60;;
63112;SDS011;49206;48.020;21.378;2023-02-12T00:12:30;72.75;;;34.15;;
63112;SDS011;49206;48.020;21.378;2023-02-12T00:13:33;66.72;;;31.30;;
63112;SDS011;49206;48.020;21.378;2023-02-12T00:14:36;67.30;;;32.85;;
63112;SDS011;49206;48.020;21.378;2023-02-12T00:15:41;71.47;;;33.08;;
63112;SDS011;49206;48.020;21.378;2023-02-12T00:16:45;68.93;;;33.63;;
63112;SDS011;49206;48.020;21.378;2023-02-12T00:17:47;73.00;;;35.50;;
63112;SDS011;49206;48.020;21.378;2023-02-12T00:18:50;74.18;;;33.85;;
63112;SDS011;49206;48.020;21.378;2023-02-12T00:19:54;75.28;;;34.80;;
63112;SDS011;49206;48.020;21.378;2023-02-12T00:20:57;77.45;;;35.08;;
63112;SDS011;49206;48.020;21.378;2023-02-12T00:23:03;65.85;;;31.33;;
63112;SDS011;49206;48.020;21.378;2023-02-12T00:24:06;68.93;;;32.20;;
63112;SDS011;49206;48.020;21.378;2023-02-12T00:25:09;73.22;;;34.90;;
63112;SDS011;49206;48.020;21.378;2023-02-12T00:26:12;72.22;;;35.10;;
63112;SDS011;49206;48.020;21.378;2023-02-12T00:27:20;71.95;;;34.53;;
63112;SDS011;49206;48.020;21.378;2023-02-12T00:28:23;74.05;;;35.85;;
63112;SDS011;49206;48.020;21.378;2023-02-12T00:29:26;69.03;;;33.25;;
63112;SDS011;49206;48.020;21.378;2023-02-12T00:30:28;73.07;;;34.63;;
63112;SDS011;49206;48.020;21.378;2023-02-12T00:31:31;70.35;;;33.67;;
63112;SDS011;49206;48.020;21.378;2023-02-12T00:32:33;76.60;;;35.50;;
63112;SDS011;49206;48.020;21.378;2023-02-12T00:33:38;68.30;;;34.67;;
63112;SDS011;49206;48.020;21.378;2023-02-12T00:34:41;72.35;;;33.80;;
63112;SDS011;49206;48.020;21.378;2023-02-12T00:35:43;73.68;;;35.42;;
63112;SDS011;49206;48.020;21.378;2023-02-12T00:36:46;75.38;;;35.05;;
63112;SDS011;49206;48.020;21.378;2023-02-12T00:37:48;70.15;;;36.38;;
63112;SDS011;49206;48.020;21.378;2023-02-12T00:38:52;68.90;;;34.78;;
63112;SDS011;49206;48.020;21.378;2023-02-12T00:39:58;73.43;;;35.30;;
63112;SDS011;49206;48.020;21.378;2023-02-12T00:41:00;73.18;;;34.95;;
63112;SDS011;49206;48.020;21.378;2023-02-12T00:42:03;77.80;;;36.25;;
63112;SDS011;49206;48.020;21.378;2023-02-12T00:43:06;73.15;;;35.17;;
63112;SDS011;49206;48.020;21.378;2023-02-12T00:44:08;70.18;;;32.42;;
63112;SDS011;49206;48.020;21.378;2023-02-12T00:45:11;69.95;;;32.10;;
63112;SDS011;49206;48.020;21.378;2023-02-12T00:46:13;67.90;;;33.28;;
63112;SDS011;49206;48.020;21.378;2023-02-12T00:47:17;69.68;;;34.05;;
63112;SDS011;49206;48.020;21.378;2023-02-12T00:48:19;71.40;;;33.53;;
63112;SDS011;49206;48.020;21.378;2023-02-12T00:49:22;69.05;;;33.03;;
63112;SDS011;49206;48.020;21.378;2023-02-12T00:50:25;68.82;;;31.13;;
63112;SDS011;49206;48.020;21.378;2023-02-12T00:51:30;64.43;;;33.70;;
63112;SDS011;49206;48.020;21.378;2023-02-12T00:52:33;77.53;;;35.00;;
63112;SDS011;49206;48.020;21.378;2023-02-12T00:53:36;70.63;;;33.80;;
63112;SDS011;49206;48.020;21.378;2023-02-12T00:55:43;64.57;;;30.45;;
63112;SDS011;49206;48.020;21.378;2023-02-12T00:56:46;74.68;;;33.10;;
63112;SDS011;49206;48.020;21.378;2023-02-12T00:57:48;70.03;;;32.55;;
63112;SDS011;49206;48.020;21.378;2023-02-12T00:58:51;66.05;;;31.85;;
63112;SDS011;49206;48.020;21.378;2023-02-12T00:59:53;70.35;;;33.75;;
63112;SDS011;49206;48.020;21.378;2023-02-12T01:00:57;74.45;;;33.67;;
63112;SDS011;49206;48.020;21.378;2023-02-12T01:02:00;66.30;;;33.58;;
63112;SDS011;49206;48.020;21.378;2023-02-12T01:03:02;68.43;;;32.67;;
63112;SDS011;49206;48.020;21.378;2023-02-12T01:04:06;64.95;;;32.92;;
63112;SDS011;49206;48.020;21.378;2023-02-12T01:05:08;64.40;;;32.80;;
63112;SDS011;49206;48.020;21.378;2023-02-12T01:06:11;67.47;;;31.42;;
63112;SDS011;49206;48.020;21.378;2023-02-12T01:07:14;65.20;;;33.13;;
63112;SDS011;49206;48.020;21.378;2023-02-12T01:08:16;69.05;;;32.97;;
63112;SDS011;49206;48.020;21.378;2023-02-12T01:09:19;58.85;;;31.98;;
63112;SDS011;49206;48.020;21.378;2023-02-12T01:10:22;78.78;;;35.08;;
63112;SDS011;49206;48.020;21.378;2023-02-12T01:11:24;63.53;;;30.08;;
63112;SDS011;49206;48.020;21.378;2023-02-12T01:12:27;71.70;;;31.92;;
63112;SDS011;49206;48.020;21.378;2023-02-12T01:13:29;70.20;;;33.53;;
63112;SDS011;49206;48.020;21.378;2023-02-12T01:14:34;64.03;;;31.73;;
63112;SDS011;49206;48.020;21.378;2023-02-12T01:15:37;67.80;;;33.83;;
63112;SDS011;49206;48.020;21.378;2023-02-12T01:16:40;69.18;;;33.53;;
63112;SDS011;49206;48.020;21.378;2023-02-12T01:17:42;66.68;;;32.08;;
63112;SDS011;49206;48.020;21.378;2023-02-12T01:18:45;66.05;;;32.78;;
63112;SDS011;49206;48.020;21.378;2023-02-12T01:19:48;68.03;;;33.03;;
63112;SDS011;49206;48.020;21.378;2023-02-12T01:20:51;62.83;;;29.88;;
63112;SDS011;49206;48.020;21.378;2023-02-12T01:21:53;68.07;;;33.80;;
63112;SDS011;49206;48.020;21.378;2023-02-12T01:22:56;64.63;;;32.53;;
63112;SDS011;49206;48.020;21.378;2023-02-12T01:23:58;64.05;;;30.95;;
63112;SDS011;49206;48.020;21.378;2023-02-12T01:25:02;69.03;;;33.42;;
63112;SDS011;49206;48.020;21.378;2023-02-12T01:26:05;64.93;;;31.63;;
63112;SDS011;49206;48.020;21.378;2023-02-12T01:27:08;60.25;;;32.83;;
63112;SDS011;49206;48.020;21.378;2023-02-12T01:28:11;66.30;;;32.40;;
63112;SDS011;49206;48.020;21.378;2023-02-12T01:29:13;67.70;;;35.45;;
63112;SDS011;49206;48.020;21.378;2023-02-12T01:30:16;69.32;;;34.63;;
63112;SDS011;49206;48.020;21.378;2023-02-12T01:31:19;68.32;;;33.22;;
63112;SDS011;49206;48.020;21.378;2023-02-12T01:32:26;63.67;;;32.17;;
63112;SDS011;49206;48.020;21.378;2023-02-12T01:33:29;69.38;;;34.20;;
63112;SDS011;49206;48.020;21.378;2023-02-12T01:34:31;67.00;;;31.83;;
63112;SDS011;49206;48.020;21.378;2023-02-12T01:35:35;67.28;;;33.70;;
63112;SDS011;49206;48.020;21.378;2023-02-12T01:36:40;68.90;;;32.25;;
63112;SDS011;49206;48.020;21.378;2023-02-12T01:37:42;72.22;;;33.00;;
63112;SDS011;49206;48.020;21.378;2023-02-12T01:38:44;74.95;;;33.10;;
63112;SDS011;49206;48.020;21.378;2023-02-12T01:39:47;70.47;;;32.45;;
63112;SDS011;49206;48.020;21.378;2023-02-12T01:40:50;67.55;;;31.45;;
63112;SDS011;49206;48.020;21.378;2023-02-12T01:41:52;60.15;;;32.13;;
63112;SDS011;49206;48.020;21.378;2023-02-12T01:42:54;69.35;;;33.38;;
63112;SDS011;49206;48.020;21.378;2023-02-12T01:46:16;68.63;;;30.38;;
63112;SDS011;49206;48.020;21.378;2023-02-12T01:47:18;64.95;;;31.88;;
63112;SDS011;49206;48.020;21.378;2023-02-12T01:48:22;67.35;;;30.88;;
63112;SDS011;49206;48.020;21.378;2023-02-12T01:49:30;66.07;;;30.52;;
63112;SDS011;49206;48.020;21.378;2023-02-12T01:50:41;67.05;;;29.80;;
63112;SDS011;49206;48.020;21.378;2023-02-12T01:51:49;64.82;;;30.85;;
63112;SDS011;49206;48.020;21.378;2023-02-12T01:52:55;67.10;;;33.70;;
63112;SDS011;49206;48.020;21.378;2023-02-12T01:53:59;70.55;;;33.03;;
63112;SDS011;49206;48.020;21.378;2023-02-12T01:55:06;67.40;;;31.42;;
63112;SDS011;49206;48.020;21.378;2023-02-12T01:56:11;61.63;;;29.45;;
63112;SDS011;49206;48.020;21.378;2023-02-12T01:57:15;63.05;;;31.63;;
63112;SDS011;49206;48.020;21.378;2023-02-12T01:58:18;62.70;;;30.33;;
63112;SDS011;49206;48.020;21.378;2023-02-12T01:59:22;62.75;;;31.05;;
63112;SDS011;49206;48.020;21.378;2023-02-12T02:00:25;72.45;;;35.65;;
63112;SDS011;49206;48.020;21.378;2023-02-12T02:01:28;58.25;;;31.27;;
63112;SDS011;49206;48.020;21.378;2023-02-12T02:02:33;65.25;;;32.67;;
63112;SDS011;49206;48.020;21.378;2023-02-12T02:04:52;61.72;;;31.27;;
63112;SDS011;49206;48.020;21.378;2023-02-12T02:05:59;57.33;;;28.70;;
63112;SDS011;49206;48.020;21.378;2023-02-12T02:07:23;59.70;;;26.45;;
63112;SDS011;49206;48.020;21.378;2023-02-12T02:08:26;65.60;;;29.88;;
63112;SDS011;49206;48.020;21.378;2023-02-12T02:09:29;67.45;;;31.27;;
63112;SDS011;49206;48.020;21.378;2023-02-12T02:10:35;66.25;;;31.10;;
63112;SDS011;49206;48.020;21.378;2023-02-12T02:11:38;66.82;;;32.17;;
63112;SDS011;49206;48.020;21.378;2023-02-12T02:12:59;62.05;;;30.33;;
63112;SDS011;49206;48.020;21.378;2023-02-12T02:14:20;63.60;;;29.58;;
63112;SDS011;49206;48.020;21.378;2023-02-12T02:15:36;67.35;;;31.35;;
63112;SDS011;49206;48.020;21.378;2023-02-12T02:16:41;69.13;;;33.55;;
63112;SDS011;49206;48.020;21.378;2023-02-12T02:18:35;68.35;;;33.10;;
63112;SDS011;49206;48.020;21.378;2023-02-12T02:19:34;65.50;;;31.88;;
63112;SDS011;49206;48.020;21.378;2023-02-12T02:27:17;67.85;;;30.88;;
63112;SDS011;49206;48.020;21.378;2023-02-12T02:31:24;64.65;;;30.30;;
63112;SDS011;49206;48.020;21.378;2023-02-12T02:32:42;66.68;;;30.73;;
63112;SDS011;49206;48.020;21.378;2023-02-12T02:35:40;66.80;;;31.77;;
63112;SDS011;49206;48.020;21.378;2023-02-12T02:36:44;63.90;;;28.90;;
63112;SDS011;49206;48.020;21.378;2023-02-12T02:38:24;63.38;;;30.30;;
63112;SDS011;49206;48.020;21.378;2023-02-12T02:40:45;61.95;;;31.70;;
63112;SDS011;49206;48.020;21.378;2023-02-12T02:41:54;64.57;;;31.27;;
63112;SDS011;49206;48.020;21.378;2023-02-12T02:43:08;68.75;;;31.08;;
63112;SDS011;49206;48.020;21.378;2023-02-12T02:44:18;57.45;;;31.63;;
63112;SDS011;49206;48.020;21.378;2023-02-12T02:45:27;58.95;;;29.48;;
63112;SDS011;49206;48.020;21.378;2023-02-12T02:46:46;65.57;;;31.83;;
63112;SDS011;49206;48.020;21.378;2023-02-12T02:48:12;67.22;;;31.23;;
63112;SDS011;49206;48.020;21.378;2023-02-12T02:50:03;56.40;;;28.73;;
63112;SDS011;49206;48.020;21.378;2023-02-12T02:51:09;58.83;;;28.90;;
63112;SDS011;49206;48.020;21.378;2023-02-12T02:52:17;67.78;;;31.55;;
63112;SDS011;49206;48.020;21.378;2023-02-12T02:53:29;61.55;;;30.80;;
63112;SDS011;49206;48.020;21.378;2023-02-12T02:54:40;66.78;;;32.40;;
63112;SDS011;49206;48.020;21.378;2023-02-12T02:55:48;63.95;;;30.65;;
63112;SDS011;49206;48.020;21.378;2023-02-12T02:56:54;62.88;;;30.95;;
63112;SDS011;49206;48.020;21.378;2023-02-12T02:58:01;66.30;;;30.90;;
63112;SDS011;49206;48.020;21.378;2023-02-12T02:59:25;66.32;;;30.02;;
63112;SDS011;49206;48.020;21.378;2023-02-12T03:00:35;68.38;;;31.15;;
63112;SDS011;49206;48.020;21.378;2023-02-12T03:01:43;61.58;;;31.23;;
63112;SDS011;49206;48.020;21.378;2023-02-12T03:02:51;62.63;;;31.00;;
63112;SDS011;49206;48.020;21.378;2023-02-12T03:04:02;63.20;;;29.98;;
63112;SDS011;49206;48.020;21.378;2023-02-12T03:05:09;62.65;;;31.33;;
63112;SDS011;49206;48.020;21.378;2023-02-12T03:06:23;66.47;;;32.28;;
63112;SDS011;49206;48.020;21.378;2023-02-12T03:07:32;63.58;;;31.98;;
63112;SDS011;49206;48.020;21.378;2023-02-12T03:08:41;65.28;;;31.35;;
63112;SDS011;49206;48.020;21.378;2023-02-12T03:10:05;65.95;;;31.00;;
63112;SDS011;49206;48.020;21.378;2023-02-12T03:11:14;60.30;;;29.80;;
63112;SDS011;49206;48.020;21.378;2023-02-12T03:12:24;66.75;;;31.35;;
63112;SDS011;49206;48.020;21.378;2023-02-12T03:13:36;67.22;;;32.22;;
63112;SDS011;49206;48.020;21.378;2023-02-12T03:15:11;62.30;;;31.13;;
63112;SDS011;49206;48.020;21.378;2023-02-12T03:16:18;60.38;;;31.00;;
63112;SDS011;49206;48.020;21.378;2023-02-12T03:17:26;63.80;;;31.63;;
63112;SDS011;49206;48.020;21.378;2023-02-12T03:19:45;62.13;;;28.42;;
63112;SDS011;49206;48.020;21.378;2023-02-12T03:20:54;68.60;;;31.63;;
63112;SDS011;49206;48.020;21.378;2023-02-12T03:22:07;68.57;;;30.83;;
63112;SDS011;49206;48.020;21.378;2023-02-12T03:23:14;54.35;;;26.98;;
63112;SDS011;49206;48.020;21.378;2023-02-12T03:24:32;64.28;;;30.80;;
63112;SDS011;49206;48.020;21.378;2023-02-12T03:28:24;61.20;;;30.55;;
63112;SDS011;49206;48.020;21.378;2023-02-12T03:29:30;72.22;;;34.03;;
63112;SDS011;49206;48.020;21.378;2023-02-12T03:30:40;64.90;;;31.98;;
63112;SDS011;49206;48.020;21.378;2023-02-12T03:34:40;66.38;;;33.08;;
63112;SDS011;49206;48.020;21.378;2023-02-12T03:37:05;66.72;;;30.70;;
63112;SDS011;49206;48.020;21.378;2023-02-12T03:39:34;61.63;;;30.98;;
63112;SDS011;49206;48.020;21.378;2023-02-12T03:41:08;62.05;;;29.92;;
63112;SDS011;49206;48.020;21.378;2023-02-12T03:42:31;64.47;;;30.88;;
63112;SDS011;49206;48.020;21.378;2023-02-12T03:44:53;64.03;;;33.15;;
63112;SDS011;49206;48.020;21.378;2023-02-12T03:46:06;62.83;;;32.40;;
63112;SDS011;49206;48.020;21.378;2023-02-12T03:50:38;61.15;;;29.48;;
63112;SDS011;49206;48.020;21.378;2023-02-12T03:52:02;67.25;;;29.67;;
63112;SDS011;49206;48.020;21.378;2023-02-12T03:53:05;63.42;;;31.30;;
63112;SDS011;49206;48.020;21.378;2023-02-12T03:54:08;61.65;;;30.88;;
63112;SDS011;49206;48.020;21.378;2023-02-12T03:55:13;64.10;;;32.53;;
63112;SDS011;49206;48.020;21.378;2023-02-12T03:57:41;67.47;;;31.55;;
63112;SDS011;49206;48.020;21.378;2023-02-12T03:58:46;65.57;;;31.02;;
63112;SDS011;49206;48.020;21.378;2023-02-12T03:59:48;63.38;;;32.60;;
63112;SDS011;49206;48.020;21.378;2023-02-12T04:00:51;61.85;;;32.50;;
63112;SDS011;49206;48.020;21.378;2023-02-12T04:01:54;61.92;;;31.90;;
63112;SDS011;49206;48.020;21.378;2023-02-12T04:02:59;64.03;;;32.28;;
63112;SDS011;49206;48.020;21.378;2023-02-12T04:04:03;64.07;;;32.63;;
63112;SDS011;49206;48.020;21.378;2023-02-12T04:05:07;67.22;;;33.63;;
63112;SDS011;49206;48.020;21.378;2023-02-12T04:06:21;65.50;;;34.40;;
63112;SDS011;49206;48.020;21.378;2023-02-12T04:07:26;73.13;;;35.05;;
63112;SDS011;49206;48.020;21.378;2023-02-12T04:08:29;71.93;;;34.10;;
63112;SDS011;49206;48.020;21.378;2023-02-12T04:09:33;65.90;;;32.47;;
63112;SDS011;49206;48.020;21.378;2023-02-12T04:14:49;66.90;;;32.08;;
63112;SDS011;49206;48.020;21.378;2023-02-12T04:23:43;61.90;;;30.55;;
63112;SDS011;49206;48.020;21.378;2023-02-12T04:25:15;63.75;;;30.80;;
63112;SDS011;49206;48.020;21.378;2023-02-12T04:26:54;71.90;;;31.90;;
63112;SDS011;49206;48.020;21.378;2023-02-12T04:31:12;69.82;;;32.45;;
63112;SDS011;49206;48.020;21.378;2023-02-12T04:32:44;66.82;;;31.10;;
63112;SDS011;49206;48.020;21.378;2023-02-12T04:33:54;66.22;;;32.60;;
63112;SDS011;49206;48.020;21.378;2023-02-12T04:35:12;75.25;;;33.05;;
63112;SDS011;49206;48.020;21.378;2023-02-12T04:36:24;64.25;;;31.23;;
63112;SDS011;49206;48.020;21.378;2023-02-12T04:37:35;73.15;;;34.40;;
63112;SDS011;49206;48.020;21.378;2023-02-12T04:39:03;66.80;;;32.42;;
63112;SDS011;49206;48.020;21.378;2023-02-12T04:40:14;67.13;;;31.13;;
63112;SDS011;49206;48.020;21.378;2023-02-12T04:41:19;65.97;;;32.40;;
63112;SDS011;49206;48.020;21.378;2023-02-12T04:42:22;65.40;;;33.97;;
63112;SDS011;49206;48.020;21.378;2023-02-12T04:43:29;63.95;;;32.33;;
63112;SDS011;49206;48.020;21.378;2023-02-12T04:44:38;67.25;;;33.17;;
63112;SDS011;49206;48.020;21.378;2023-02-12T04:45:42;69.10;;;31.80;;
63112;SDS011;49206;48.020;21.378;2023-02-12T04:46:45;64.75;;;31.67;;
63112;SDS011;49206;48.020;21.378;2023-02-12T04:47:47;69.60;;;34.30;;
63112;SDS011;49206;48.020;21.378;2023-02-12T04:48:54;67.13;;;33.95;;
63112;SDS011;49206;48.020;21.378;2023-02-12T04:49:59;70.43;;;34.30;;
63112;SDS011;49206;48.020;21.378;2023-02-12T04:51:01;69.15;;;32.28;;
63112;SDS011;49206;48.020;21.378;2023-02-12T04:52:04;71.22;;;33.08;;
63112;SDS011;49206;48.020;21.378;2023-02-12T04:53:07;73.18;;;37.72;;
63112;SDS011;49206;48.020;21.378;2023-02-12T04:54:10;70.90;;;33.38;;
63112;SDS011;49206;48.020;21.378;2023-02-12T04:55:12;68.88;;;32.58;;
63112;SDS011;49206;48.020;21.378;2023-02-12T04:56:16;70.70;;;35.55;;
63112;SDS011;49206;48.020;21.378;2023-02-12T04:57:18;65.53;;;32.42;;
63112;SDS011;49206;48.020;21.378;2023-02-12T04:58:21;72.32;;;32.80;;
63112;SDS011;49206;48.020;21.378;2023-02-12T04:59:23;67.47;;;33.95;;
63112;SDS011;49206;48.020;21.378;2023-02-12T05:00:26;66.78;;;35.20;;
63112;SDS011;49206;48.020;21.378;2023-02-12T05:01:28;69.80;;;34.50;;
63112;SDS011;49206;48.020;21.378;2023-02-12T05:02:32;65.25;;;32.75;;
63112;SDS011;49206;48.020;21.378;2023-02-12T05:03:36;67.05;;;33.88;;
63112;SDS011;49206;48.020;21.378;2023-02-12T05:04:38;72.40;;;34.03;;
63112;SDS011;49206;48.020;21.378;2023-02-12T05:05:41;68.63;;;35.65;;
63112;SDS011;49206;48.020;21.378;2023-02-12T05:06:43;70.45;;;33.95;;
63112;SDS011;49206;48.020;21.378;2023-02-12T05:07:47;71.68;;;34.22;;
63112;SDS011;49206;48.020;21.378;2023-02-12T05:08:51;65.63;;;34.00;;
63112;SDS011;49206;48.020;21.378;2023-02-12T05:09:54;70.35;;;33.88;;
63112;SDS011;49206;48.020;21.378;2023-02-12T05:10:57;66.25;;;32.88;;
63112;SDS011;49206;48.020;21.378;2023-02-12T05:12:05;74.47;;;35.08;;
63112;SDS011;49206;48.020;21.378;2023-02-12T05:13:07;71.13;;;34.70;;
63112;SDS011;49206;48.020;21.378;2023-02-12T05:14:11;67.63;;;33.22;;
63112;SDS011;49206;48.020;21.378;2023-02-12T05:15:13;72.28;;;35.42;;
63112;SDS011;49206;48.020;21.378;2023-02-12T05:16:16;67.72;;;34.10;;
63112;SDS011;49206;48.020;21.378;2023-02-12T05:17:22;67.82;;;33.38;;
63112;SDS011;49206;48.020;21.378;2023-02-12T05:18:25;78.03;;;35.85;;
63112;SDS011;49206;48.020;21.378;2023-02-12T05:19:28;75.97;;;37.72;;
63112;SDS011;49206;48.020;21.378;2023-02-12T05:20:30;72.90;;;35.88;;
63112;SDS011;49206;48.020;21.378;2023-02-12T05:21:32;71.70;;;32.60;;
63112;SDS011;49206;48.020;21.378;2023-02-12T05:22:35;74.03;;;36.70;;
63112;SDS011;49206;48.020;21.378;2023-02-12T05:23:38;71.88;;;37.33;;
63112;SDS011;49206;48.020;21.378;2023-02-12T05:24:41;75.30;;;35.63;;
63112;SDS011;49206;48.020;21.378;2023-02-12T05:25:43;71.13;;;34.47;;
63112;SDS011;49206;48.020;21.378;2023-02-12T05:26:47;69.40;;;34.42;;
63112;SDS011;49206;48.020;21.378;2023-02-12T05:27:52;73.63;;;34.97;;
63112;SDS011;49206;48.020;21.378;2023-02-12T05:28:55;73.25;;;34.63;;
63112;SDS011;49206;48.020;21.378;2023-02-12T05:29:57;69.75;;;34.47;;
63112;SDS011;49206;48.020;21.378;2023-02-12T05:31:04;69.68;;;33.90;;
63112;SDS011;49206;48.020;21.378;2023-02-12T05:32:08;68.40;;;32.97;;
63112;SDS011;49206;48.020;21.378;2023-02-12T05:33:10;72.97;;;34.60;;
63112;SDS011;49206;48.020;21.378;2023-02-12T05:34:12;71.20;;;33.38;;
63112;SDS011;49206;48.020;21.378;2023-02-12T05:35:15;73.53;;;36.15;;
63112;SDS011;49206;48.020;21.378;2023-02-12T05:36:19;69.07;;;35.80;;
63112;SDS011;49206;48.020;21.378;2023-02-12T05:37:23;70.95;;;33.83;;
63112;SDS011;49206;48.020;21.378;2023-02-12T05:38:25;64.65;;;32.03;;
63112;SDS011;49206;48.020;21.378;2023-02-12T05:39:27;66.75;;;33.45;;
63112;SDS011;49206;48.020;21.378;2023-02-12T05:40:30;65.97;;;31.88;;
63112;SDS011;49206;48.020;21.378;2023-02-12T05:41:32;66.72;;;33.22;;
63112;SDS011;49206;48.020;21.378;2023-02-12T05:42:36;71.18;;;32.97;;
63112;SDS011;49206;48.020;21.378;2023-02-12T05:43:39;72.80;;;31.98;;
63112;SDS011;49206;48.020;21.378;2023-02-12T05:44:42;68.18;;;33.83;;
63112;SDS011;49206;48.020;21.378;2023-02-12T05:45:44;70.85;;;34.53;;
63112;SDS011;49206;48.020;21.378;2023-02-12T05:46:47;68.20;;;34.67;;
63112;SDS011;49206;48.020;21.378;2023-02-12T05:47:49;64.20;;;34.17;;
63112;SDS011;49206;48.020;21.378;2023-02-12T05:48:52;67.00;;;33.20;;
63112;SDS011;49206;48.020;21.378;2023-02-12T05:49:55;71.22;;;33.25;;
63112;SDS011;49206;48.020;21.378;2023-02-12T05:51:01;70.95;;;34.30;;
63112;SDS011;49206;48.020;21.378;2023-02-12T05:52:05;66.82;;;33.45;;
63112;SDS011;49206;48.020;21.378;2023-02-12T05:53:07;65.93;;;33.67;;
63112;SDS011;49206;48.020;21.378;2023-02-12T05:54:10;69.32;;;34.75;;
63112;SDS011;49206;48.020;21.378;2023-02-12T05:55:12;67.55;;;32.78;;
63112;SDS011;49206;48.020;21.378;2023-02-12T05:56:16;70.03;;;33.80;;
63112;SDS011;49206;48.020;21.378;2023-02-12T05:57:19;67.07;;;35.70;;
63112;SDS011;49206;48.020;21.378;2023-02-12T05:58:21;72.28;;;33.17;;
63112;SDS011;49206;48.020;21.378;2023-02-12T05:59:23;67.18;;;32.60;;
63112;SDS011;49206;48.020;21.378;2023-02-12T06:00:26;72.53;;;33.63;;
63112;SDS011;49206;48.020;21.378;2023-02-12T06:01:33;75.32;;;34.05;;
63112;SDS011;49206;48.020;21.378;2023-02-12T06:02:37;64.22;;;32.72;;
63112;SDS011;49206;48.020;21.378;2023-02-12T06:03:40;67.05;;;34.05;;
63112;SDS011;49206;48.020;21.378;2023-02-12T06:04:42;65.70;;;33.00;;
63112;SDS011;49206;48.020;21.378;2023-02-12T06:05:49;65.95;;;34.45;;
63112;SDS011;49206;48.020;21.378;2023-02-12T06:06:52;67.63;;;33.30;;
63112;SDS011;49206;48.020;21.378;2023-02-12T06:07:56;66.88;;;32.85;;
63112;SDS011;49206;48.020;21.378;2023-02-12T06:08:59;69.40;;;33.78;;
63112;SDS011;49206;48.020;21.378;2023-02-12T06:10:03;66.72;;;32.78;;
63112;SDS011;49206;48.020;21.378;2023-02-12T06:11:07;68.30;;;33.55;;
63112;SDS011;49206;48.020;21.378;2023-02-12T06:12:13;71.32;;;34.05;;
63112;SDS011;49206;48.020;21.378;2023-02-12T06:13:16;72.97;;;34.08;;
63112;SDS011;49206;48.020;21.378;2023-02-12T06:14:18;72.85;;;33.05;;
63112;SDS011;49206;48.020;21.378;2023-02-12T06:15:22;67.93;;;33.55;;
63112;SDS011;49206;48.020;21.378;2023-02-12T06:16:25;66.57;;;33.30;;
63112;SDS011;49206;48.020;21.378;2023-02-12T06:18:33;59.38;;;30.33;;
63112;SDS011;49206;48.020;21.378;2023-02-12T06:19:37;68.40;;;33.30;;
63112;SDS011;49206;48.020;21.378;2023-02-12T06:20:39;64.10;;;32.90;;
63112;SDS011;49206;48.020;21.378;2023-02-12T06:21:41;68.68;;;34.67;;
63112;SDS011;49206;48.020;21.378;2023-02-12T06:22:44;72.15;;;33.50;;
63112;SDS011;49206;48.020;21.378;2023-02-12T06:23:47;77.43;;;36.05;;
63112;SDS011;49206;48.020;21.378;2023-02-12T06:24:50;71.03;;;33.10;;
63112;SDS011;49206;48.020;21.378;2023-02-12T06:25:54;73.82;;;34.63;;
63112;SDS011;49206;48.020;21.378;2023-02-12T06:26:58;73.20;;;35.08;;
63112;SDS011;49206;48.020;21.378;2023-02-12T06:28:01;72.05;;;35.65;;
63112;SDS011;49206;48.020;21.378;2023-02-12T06:29:04;71.95;;;34.15;;
63112;SDS011;49206;48.020;21.378;2023-02-12T06:30:06;70.75;;;34.92;;
63112;SDS011;49206;48.020;21.378;2023-02-12T06:31:20;71.38;;;34.90;;
63112;SDS011;49206;48.020;21.378;2023-02-12T06:32:33;73.03;;;34.55;;
63112;SDS011;49206;48.020;21.378;2023-02-12T06:33:36;78.32;;;36.90;;
63112;SDS011;49206;48.020;21.378;2023-02-12T06:34:38;75.93;;;38.10;;
63112;SDS011;49206;48.020;21.378;2023-02-12T06:35:41;69.07;;;35.13;;
63112;SDS011;49206;48.020;21.378;2023-02-12T06:36:44;70.35;;;36.25;;
63112;SDS011;49206;48.020;21.378;2023-02-12T06:37:47;72.97;;;34.60;;
63112;SDS011;49206;48.020;21.378;2023-02-12T06:38:50;71.05;;;36.15;;
63112;SDS011;49206;48.020;21.378;2023-02-12T06:39:53;71.47;;;36.20;;
63112;SDS011;49206;48.020;21.378;2023-02-12T06:40:55;74.15;;;37.42;;
63112;SDS011;49206;48.020;21.378;2023-02-12T06:41:58;69.50;;;34.10;;
63112;SDS011;49206;48.020;21.378;2023-02-12T06:43:00;75.07;;;35.25;;
63112;SDS011;49206;48.020;21.378;2023-02-12T06:44:03;73.38;;;35.22;;
63112;SDS011;49206;48.020;21.378;2023-02-12T06:45:05;76.30;;;35.13;;
63112;SDS011;49206;48.020;21.378;2023-02-12T06:46:08;75.03;;;34.83;;
63112;SDS011;49206;48.020;21.378;2023-02-12T06:47:11;73.30;;;35.97;;
63112;SDS011;49206;48.020;21.378;2023-02-12T06:48:13;72.38;;;35.92;;
63112;SDS011;49206;48.020;21.378;2023-02-12T06:49:16;82.47;;;36.22;;
63112;SDS011;49206;48.020;21.378;2023-02-12T06:50:18;75.95;;;34.80;;
63112;SDS011;49206;48.020;21.378;2023-02-12T06:51:21;122.78;;;38.50;;
63112;SDS011;49206;48.020;21.378;2023-02-12T06:52:24;81.63;;;36.45;;
63112;SDS011;49206;48.020;21.378;2023-02-12T06:53:26;80.75;;;35.50;;
63112;SDS011;49206;48.020;21.378;2023-02-12T06:54:29;72.80;;;35.15;;
63112;SDS011;49206;48.020;21.378;2023-02-12T06:55:31;73.40;;;34.67;;
63112;SDS011;49206;48.020;21.378;2023-02-12T06:56:35;72.05;;;35.78;;
63112;SDS011;49206;48.020;21.378;2023-02-12T06:57:37;73.47;;;34.45;;
63112;SDS011;49206;48.020;21.378;2023-02-12T06:58:41;74.07;;;35.67;;
63112;SDS011;49206;48.020;21.378;2023-02-12T06:59:45;68.43;;;33.85;;
63112;SDS011;49206;48.020;21.378;2023-02-12T07:00:47;69.00;;;34.45;;
63112;SDS011;49206;48.020;21.378;2023-02-12T07:01:50;74.53;;;38.40;;
63112;SDS011;49206;48.020;21.378;2023-02-12T07:02:53;85.72;;;37.85;;
63112;SDS011;49206;48.020;21.378;2023-02-12T07:03:58;78.25;;;39.28;;
63112;SDS011;49206;48.020;21.378;2023-02-12T07:05:04;69.82;;;35.75;;
63112;SDS011;49206;48.020;21.378;2023-02-12T07:06:07;77.50;;;35.78;;
63112;SDS011;49206;48.020;21.378;2023-02-12T07:07:10;69.55;;;35.10;;
63112;SDS011;49206;48.020;21.378;2023-02-12T07:08:14;74.22;;;35.80;;
63112;SDS011;49206;48.020;21.378;2023-02-12T07:09:16;75.30;;;35.63;;